Terminal Aerodrome Forecast
Issued by NWS Bismarck, ND

Home | Current Version | Previous Version | Graphics & Text | Print | Product List | Glossary On
Versions: 1 2 3 4 5 6 7 8 9 10 11 12 13 14 15 16 17 18 19 20 21 22 23 24 25 26 27 28 29 30 31 32
447
FTUS43 KBIS 022242 AAA
TAFBIS
TAF AMD
KBIS 022242Z 0223/0318 19007KT P6SM OVC080
     FM030000 16004KT P6SM OVC040
     FM030900 17004KT P6SM BKN030
     FM031200 17005KT P6SM SCT110=

USA.gov is the U.S. government's official web portal to all federal, state and local government web resources and services.